createdAt,value
2023-05-21T00:00:21.691Z,12.66
2023-05-21T00:01:25.168Z,12.60
2023-05-21T00:02:29.607Z,12.60
2023-05-21T00:03:33.667Z,12.67
2023-05-21T00:04:36.299Z,12.57
2023-05-21T00:05:38.861Z,12.56
2023-05-21T00:06:41.358Z,12.51
2023-05-21T00:07:45.736Z,12.56
2023-05-21T00:08:47.877Z,12.63
2023-05-21T00:09:51.091Z,12.56
2023-05-21T00:10:53.948Z,12.55
2023-05-21T00:11:56.393Z,12.54
2023-05-21T00:12:58.882Z,12.56
2023-05-21T00:14:02.211Z,12.56
2023-05-21T00:15:05.618Z,12.55
2023-05-21T00:16:10.390Z,12.59
2023-05-21T00:17:12.686Z,12.56
2023-05-21T00:18:15.562Z,12.56
2023-05-21T00:19:17.941Z,12.54
2023-05-21T00:20:20.637Z,12.52
2023-05-21T00:21:24.848Z,12.52
2023-05-21T00:22:26.995Z,12.45
2023-05-21T00:23:31.108Z,12.42
2023-05-21T00:24:33.299Z,12.39
2023-05-21T00:25:35.507Z,12.36
2023-05-21T00:26:37.975Z,12.41
2023-05-21T00:27:40.735Z,12.38
2023-05-21T00:28:42.892Z,12.42
2023-05-21T00:29:45.520Z,12.45
2023-05-21T00:30:48.341Z,12.47
2023-05-21T00:31:51.581Z,12.46
2023-05-21T00:32:54.109Z,12.48
2023-05-21T00:33:56.612Z,12.45
2023-05-21T00:34:59.036Z,12.45
2023-05-21T00:36:01.483Z,12.46
2023-05-21T00:37:04.303Z,12.42
2023-05-21T00:38:07.966Z,12.44
2023-05-21T00:39:11.194Z,12.41
2023-05-21T00:40:14.109Z,12.43
2023-05-21T00:41:17.937Z,12.43
2023-05-21T00:42:20.387Z,12.45
2023-05-21T00:43:25.202Z,12.43
2023-05-21T00:44:30.204Z,12.32
2023-05-21T00:45:32.616Z,12.19
2023-05-21T00:46:35.929Z,12.22
2023-05-21T00:47:38.663Z,12.18
2023-05-21T00:48:42.031Z,12.16
2023-05-21T00:49:44.984Z,12.18
2023-05-21T00:50:48.946Z,12.18
2023-05-21T00:51:51.387Z,12.20
2023-05-21T00:52:53.831Z,12.14
2023-05-21T00:53:58.283Z,12.09
2023-05-21T00:55:01.530Z,12.05
2023-05-21T00:56:04.730Z,12.06
2023-05-21T00:57:08.843Z,12.02
2023-05-21T00:58:11.629Z,11.96
2023-05-21T00:59:16.449Z,11.89
2023-05-21T01:00:19.534Z,11.93
2023-05-21T01:01:23.939Z,11.95
2023-05-21T01:02:27.526Z,11.93
2023-05-21T01:03:30.760Z,11.92
2023-05-21T01:04:33.317Z,11.92
2023-05-21T01:05:36.968Z,11.96
2023-05-21T01:06:39.702Z,11.97
2023-05-21T01:07:42.845Z,11.95
2023-05-21T01:08:46.171Z,11.95
2023-05-21T01:09:49.221Z,12.01
2023-05-21T01:10:52.653Z,11.98
2023-05-21T01:11:55.866Z,11.88
2023-05-21T01:12:59.728Z,11.90
2023-05-21T01:14:04.048Z,11.92
2023-05-21T01:15:09.394Z,11.91
2023-05-21T01:16:13.113Z,11.93
2023-05-21T01:17:16.584Z,11.96
2023-05-21T01:18:19.681Z,11.88
2023-05-21T01:19:23.378Z,11.87
2023-05-21T01:20:29.888Z,11.78
2023-05-21T01:21:36.767Z,11.72
2023-05-21T01:22:53.996Z,11.67
2023-05-21T01:23:56.386Z,11.59
2023-05-21T01:25:00.444Z,11.53
2023-05-21T01:26:02.969Z,11.51
2023-05-21T01:27:07.120Z,11.45
2023-05-21T01:28:10.192Z,11.41
2023-05-21T01:29:14.357Z,11.41
2023-05-21T01:30:18.960Z,11.41
2023-05-21T01:31:31.141Z,11.49
2023-05-21T01:32:42.806Z,11.53
2023-05-21T01:33:48.632Z,11.56
2023-05-21T01:35:06.213Z,11.46
2023-05-21T01:36:14.691Z,11.45
2023-05-21T01:37:24.380Z,11.44
2023-05-21T01:38:32.983Z,11.46
2023-05-21T01:39:38.953Z,11.38
2023-05-21T01:40:51.573Z,11.35
2023-05-21T01:41:55.877Z,11.42
2023-05-21T01:42:59.672Z,11.44
2023-05-21T01:44:05.238Z,11.38
2023-05-21T01:45:09.285Z,11.41
2023-05-21T01:46:15.589Z,11.35
2023-05-21T01:47:19.422Z,11.36
2023-05-21T01:48:25.306Z,11.36
2023-05-21T01:49:29.009Z,11.31
2023-05-21T01:50:33.271Z,11.31
2023-05-21T01:51:36.940Z,11.31
2023-05-21T01:52:41.273Z,11.32
2023-05-21T01:53:43.453Z,11.28
2023-05-21T01:54:45.684Z,11.25
2023-05-21T01:55:49.058Z,11.20
2023-05-21T01:56:52.537Z,11.21
2023-05-21T01:57:55.762Z,11.26
2023-05-21T01:58:59.173Z,11.20
2023-05-21T02:00:01.970Z,11.17
2023-05-21T02:01:05.592Z,11.16
2023-05-21T02:02:07.983Z,11.18
2023-05-21T02:03:10.273Z,11.21
2023-05-21T02:04:12.840Z,11.24
2023-05-21T02:05:15.496Z,11.24
2023-05-21T02:06:18.053Z,11.14
2023-05-21T02:07:20.470Z,11.16
2023-05-21T02:08:23.189Z,11.15
2023-05-21T02:09:25.616Z,11.13
2023-05-21T02:10:28.153Z,11.05
2023-05-21T02:11:30.707Z,11.11
2023-05-21T02:12:33.239Z,11.15
2023-05-21T02:13:38.109Z,11.13
2023-05-21T02:14:40.980Z,11.13
2023-05-21T02:15:44.285Z,11.10
2023-05-21T02:16:48.089Z,11.11
2023-05-21T02:17:50.773Z,11.15
2023-05-21T02:18:54.669Z,11.12
2023-05-21T02:19:57.053Z,11.14
2023-05-21T02:20:59.812Z,11.14
2023-05-21T02:22:02.235Z,11.17
2023-05-21T02:23:04.474Z,11.20
2023-05-21T02:24:06.860Z,11.16
2023-05-21T02:25:10.370Z,11.17
2023-05-21T02:26:13.632Z,11.13
2023-05-21T02:27:17.072Z,11.13
2023-05-21T02:28:20.756Z,10.99
2023-05-21T02:29:23.128Z,10.98
2023-05-21T02:30:25.678Z,10.94
2023-05-21T02:31:29.065Z,10.94
2023-05-21T02:32:31.825Z,10.97
2023-05-21T02:33:34.214Z,10.81
2023-05-21T02:34:38.580Z,10.76
2023-05-21T02:35:41.169Z,10.75
2023-05-21T02:36:43.673Z,10.78
2023-05-21T02:37:45.959Z,10.84
2023-05-21T02:38:50.096Z,10.85
2023-05-21T02:39:52.351Z,10.89
2023-05-21T02:40:54.528Z,10.94
2023-05-21T02:41:56.860Z,10.98
2023-05-21T02:42:59.505Z,11.02
2023-05-21T02:44:01.753Z,11.01
2023-05-21T02:45:05.814Z,11.06
2023-05-21T02:46:08.481Z,11.03
2023-05-21T02:47:11.969Z,11.03
2023-05-21T02:48:14.293Z,10.95
2023-05-21T02:49:16.942Z,10.94
2023-05-21T02:50:22.257Z,10.86
2023-05-21T02:51:26.366Z,10.86
2023-05-21T02:52:29.249Z,10.87
2023-05-21T02:53:31.509Z,10.67
2023-05-21T02:54:33.774Z,10.67
2023-05-21T02:55:36.803Z,10.68
2023-05-21T02:56:39.761Z,10.65
2023-05-21T02:57:41.816Z,10.63
2023-05-21T02:58:44.549Z,10.56
2023-05-21T02:59:47.581Z,10.49
2023-05-21T03:00:51.350Z,10.47
2023-05-21T03:01:53.844Z,10.45
2023-05-21T03:02:57.226Z,10.42
2023-05-21T03:03:59.639Z,10.47
2023-05-21T03:05:02.320Z,10.39
2023-05-21T03:06:04.796Z,10.38
2023-05-21T03:07:10.035Z,10.30
2023-05-21T03:08:12.695Z,10.25
2023-05-21T03:09:15.240Z,10.31
2023-05-21T03:10:18.432Z,10.26
2023-05-21T03:11:22.067Z,10.30
2023-05-21T03:12:24.373Z,10.38
2023-05-21T03:13:26.469Z,10.43
2023-05-21T03:14:29.391Z,10.38
2023-05-21T03:15:33.798Z,10.43
2023-05-21T03:16:37.759Z,10.43
2023-05-21T03:17:41.742Z,10.38
2023-05-21T03:18:45.011Z,10.39
2023-05-21T03:19:48.597Z,10.43
2023-05-21T03:20:51.164Z,10.47
2023-05-21T03:21:54.124Z,10.49
2023-05-21T03:22:56.628Z,10.49
2023-05-21T03:24:00.132Z,10.44
2023-05-21T03:25:03.182Z,10.44
2023-05-21T03:26:05.808Z,10.46
2023-05-21T03:27:08.070Z,10.51
2023-05-21T03:28:10.876Z,10.57
2023-05-21T03:29:21.314Z,10.63
2023-05-21T03:30:23.765Z,10.63
2023-05-21T03:31:28.093Z,10.63
2023-05-21T03:32:43.348Z,10.67
2023-05-21T03:33:45.912Z,10.67
2023-05-21T03:34:50.237Z,10.63
2023-05-21T03:35:54.243Z,10.63
2023-05-21T03:36:58.433Z,10.70
2023-05-21T03:38:02.106Z,10.64
2023-05-21T03:39:04.412Z,10.61
2023-05-21T03:40:10.040Z,10.59
2023-05-21T03:41:12.690Z,10.51
2023-05-21T03:42:15.773Z,10.45
2023-05-21T03:43:22.829Z,10.46
2023-05-21T03:44:25.480Z,10.45
2023-05-21T03:45:29.875Z,10.46
2023-05-21T03:46:50.674Z,10.51
2023-05-21T03:47:58.213Z,10.55
2023-05-21T03:49:00.878Z,10.60
2023-05-21T03:50:05.093Z,10.60
2023-05-21T03:51:07.383Z,10.54
2023-05-21T03:52:09.845Z,10.60
2023-05-21T03:53:13.479Z,10.66
2023-05-21T03:54:16.101Z,10.65
2023-05-21T03:55:18.542Z,10.73
2023-05-21T03:56:21.102Z,10.79
2023-05-21T03:57:23.342Z,10.82
2023-05-21T03:58:26.316Z,10.81
2023-05-21T03:59:28.988Z,10.87
2023-05-21T04:00:38.429Z,10.80
2023-05-21T04:01:40.905Z,10.77
2023-05-21T04:02:44.217Z,10.74
2023-05-21T04:03:48.160Z,10.62
2023-05-21T04:04:53.216Z,10.66
2023-05-21T04:05:56.186Z,10.73
2023-05-21T04:06:59.539Z,10.79
2023-05-21T04:08:02.558Z,10.81
2023-05-21T04:09:05.327Z,10.82
2023-05-21T04:10:09.546Z,10.88
2023-05-21T04:11:11.901Z,10.90
2023-05-21T04:12:14.201Z,10.93
2023-05-21T04:13:17.653Z,10.92
2023-05-21T04:14:21.949Z,10.92
2023-05-21T04:15:27.071Z,10.95
2023-05-21T04:16:30.920Z,11.01
2023-05-21T04:17:35.109Z,11.01
2023-05-21T04:18:37.546Z,11.14
2023-05-21T04:19:41.441Z,11.15
2023-05-21T04:20:45.140Z,11.24
2023-05-21T04:21:47.578Z,11.27
2023-05-21T04:22:51.270Z,11.23
2023-05-21T04:23:56.023Z,11.22
2023-05-21T04:25:00.702Z,11.29
2023-05-21T04:26:06.057Z,11.33
2023-05-21T04:27:09.272Z,11.33
2023-05-21T04:28:11.778Z,11.31
2023-05-21T04:29:16.182Z,11.35
2023-05-21T04:30:19.668Z,11.37
2023-05-21T04:31:23.784Z,11.43
2023-05-21T04:32:28.069Z,11.32
2023-05-21T04:33:31.612Z,11.37
2023-05-21T04:34:34.124Z,11.41
2023-05-21T04:35:37.213Z,11.48
2023-05-21T04:36:39.679Z,11.54
2023-05-21T04:37:45.665Z,11.58
2023-05-21T04:38:49.269Z,11.61
2023-05-21T04:39:51.578Z,11.60
2023-05-21T04:40:55.134Z,11.65
2023-05-21T04:41:58.493Z,11.70
2023-05-21T04:43:01.512Z,11.74
2023-05-21T04:44:04.610Z,11.80
2023-05-21T04:45:09.770Z,11.82
2023-05-21T04:46:13.479Z,11.87
2023-05-21T04:47:17.964Z,11.93
2023-05-21T04:48:22.531Z,11.98
2023-05-21T04:49:25.223Z,11.97
2023-05-21T04:50:29.461Z,12.02
2023-05-21T04:51:31.772Z,12.02
2023-05-21T04:52:34.284Z,12.01
2023-05-21T04:53:36.760Z,12.05
2023-05-21T04:54:41.272Z,12.10
2023-05-21T04:55:43.607Z,12.10
2023-05-21T04:56:47.928Z,12.18
2023-05-21T04:57:50.513Z,12.25
2023-05-21T04:58:55.287Z,12.25
2023-05-21T04:59:57.641Z,12.28
2023-05-21T05:01:02.171Z,12.33
2023-05-21T05:02:06.020Z,12.33
2023-05-21T05:03:08.330Z,12.41
2023-05-21T05:04:10.770Z,12.45
2023-05-21T05:05:13.356Z,12.55
2023-05-21T05:06:16.626Z,12.57
2023-05-21T05:07:18.720Z,12.64
2023-05-21T05:08:21.100Z,12.65
2023-05-21T05:09:24.949Z,12.66
2023-05-21T05:10:28.372Z,12.71
2023-05-21T05:11:30.653Z,12.69
2023-05-21T05:12:34.950Z,12.63
2023-05-21T05:13:38.748Z,12.68
2023-05-21T05:14:41.102Z,12.72
2023-05-21T05:15:47.509Z,12.76
2023-05-21T05:16:51.014Z,12.84
2023-05-21T05:17:54.064Z,12.99
2023-05-21T05:18:56.463Z,12.99
2023-05-21T05:19:59.867Z,13.03
2023-05-21T05:21:02.565Z,13.06
2023-05-21T05:22:05.014Z,13.07
2023-05-21T05:23:08.368Z,13.10
2023-05-21T05:24:11.776Z,13.15
2023-05-21T05:25:14.149Z,13.22
2023-05-21T05:26:17.121Z,13.23
2023-05-21T05:27:19.624Z,13.28
2023-05-21T05:28:22.071Z,13.28
2023-05-21T05:29:24.519Z,13.26
2023-05-21T05:30:26.885Z,13.29
2023-05-21T05:31:31.328Z,13.28
2023-05-21T05:32:34.227Z,13.28
2023-05-21T05:33:37.396Z,13.33
2023-05-21T05:34:39.987Z,13.39
2023-05-21T05:35:43.292Z,13.46
2023-05-21T05:36:46.657Z,13.46
2023-05-21T05:37:50.152Z,13.48
2023-05-21T05:38:53.182Z,13.57
2023-05-21T05:39:56.462Z,13.64
2023-05-21T05:40:59.365Z,13.73
2023-05-21T05:42:02.611Z,13.82
2023-05-21T05:43:05.582Z,13.88
2023-05-21T05:44:10.228Z,13.98
2023-05-21T05:45:12.037Z,13.94
2023-05-21T05:46:16.115Z,13.86
2023-05-21T05:47:19.505Z,13.92
2023-05-21T05:48:22.743Z,13.94
2023-05-21T05:49:26.207Z,14.00
2023-05-21T05:50:28.934Z,14.02
2023-05-21T05:51:31.303Z,13.96
2023-05-21T05:52:33.572Z,14.01
2023-05-21T05:53:35.871Z,14.05
2023-05-21T05:54:39.366Z,14.10
2023-05-21T05:55:43.582Z,14.14
2023-05-21T05:56:47.468Z,14.22
2023-05-21T05:57:50.743Z,14.24
2023-05-21T05:58:53.524Z,14.29
2023-05-21T05:59:57.245Z,14.37
2023-05-21T06:00:59.872Z,14.37
2023-05-21T06:02:02.569Z,14.31
2023-05-21T06:03:05.306Z,14.29
2023-05-21T06:04:08.330Z,14.30
2023-05-21T06:05:11.820Z,14.34
2023-05-21T06:06:18.487Z,14.38
2023-05-21T06:07:21.033Z,14.41
2023-05-21T06:08:24.103Z,14.41
2023-05-21T06:09:29.360Z,14.46
2023-05-21T06:10:33.052Z,14.50
2023-05-21T06:11:35.669Z,14.46
2023-05-21T06:12:39.584Z,14.45
2023-05-21T06:13:42.584Z,14.51
2023-05-21T06:14:46.786Z,14.58
2023-05-21T06:15:49.084Z,14.66
2023-05-21T06:16:51.692Z,14.74
2023-05-21T06:17:54.747Z,14.69
2023-05-21T06:18:57.753Z,14.73
2023-05-21T06:20:01.710Z,14.79
2023-05-21T06:21:04.285Z,14.85
2023-05-21T06:22:07.333Z,14.84
2023-05-21T06:23:09.769Z,14.88
2023-05-21T06:24:12.108Z,14.95
2023-05-21T06:25:15.474Z,14.95
2023-05-21T06:26:19.186Z,14.96
2023-05-21T06:27:22.613Z,14.97
2023-05-21T06:28:25.271Z,15.00
2023-05-21T06:29:28.212Z,15.08
2023-05-21T06:30:30.801Z,15.08
2023-05-21T06:31:35.661Z,15.14
2023-05-21T06:32:38.109Z,15.22
2023-05-21T06:33:40.598Z,15.22
2023-05-21T06:34:43.031Z,15.25
2023-05-21T06:35:45.385Z,15.26
2023-05-21T06:36:48.330Z,15.28
2023-05-21T06:37:51.783Z,15.28
2023-05-21T06:38:58.153Z,15.32
2023-05-21T06:40:00.678Z,15.40
2023-05-21T06:41:04.512Z,15.43
2023-05-21T06:42:08.594Z,15.45
2023-05-21T06:43:21.893Z,15.37
2023-05-21T06:44:25.908Z,15.38
2023-05-21T06:45:30.516Z,15.43
2023-05-21T06:46:36.182Z,15.38
2023-05-21T06:47:40.689Z,15.41
2023-05-21T06:48:46.125Z,15.48
2023-05-21T06:49:48.332Z,15.53
2023-05-21T06:50:51.676Z,15.57
2023-05-21T06:51:54.510Z,15.64
2023-05-21T06:52:57.592Z,15.64
2023-05-21T06:53:59.926Z,15.74
2023-05-21T06:55:04.316Z,15.83
2023-05-21T06:56:08.905Z,15.91
2023-05-21T06:57:15.041Z,16.06
2023-05-21T06:58:17.903Z,16.17
2023-05-21T06:59:20.255Z,16.24
2023-05-21T07:00:24.289Z,16.19
2023-05-21T07:01:27.421Z,16.18
2023-05-21T07:02:29.988Z,16.23
2023-05-21T07:03:34.416Z,16.17
2023-05-21T07:04:37.044Z,16.25
2023-05-21T07:05:39.479Z,16.27
2023-05-21T07:06:42.185Z,16.27
2023-05-21T07:07:44.464Z,16.27
2023-05-21T07:08:48.673Z,16.35
2023-05-21T07:09:52.220Z,16.35
2023-05-21T07:10:55.848Z,16.38
2023-05-21T07:11:58.512Z,16.28
2023-05-21T07:13:00.799Z,16.24
2023-05-21T07:14:06.308Z,16.26
2023-05-21T07:15:11.190Z,16.31
2023-05-21T07:16:16.309Z,16.46
2023-05-21T07:17:18.949Z,16.53
2023-05-21T07:18:22.076Z,16.57
2023-05-21T07:19:25.648Z,16.47
2023-05-21T07:20:29.145Z,16.50
2023-05-21T07:21:32.694Z,16.61
2023-05-21T07:22:34.758Z,16.70
2023-05-21T07:23:37.348Z,16.72
2023-05-21T07:24:40.295Z,16.73
2023-05-21T07:25:43.070Z,16.73
2023-05-21T07:26:45.590Z,16.76
2023-05-21T07:27:48.351Z,16.84
2023-05-21T07:28:51.184Z,16.77
2023-05-21T07:29:55.219Z,16.83
2023-05-21T07:30:59.227Z,16.79
2023-05-21T07:32:03.557Z,16.84
2023-05-21T07:33:06.050Z,16.87
2023-05-21T07:34:08.919Z,16.87
2023-05-21T07:35:11.294Z,16.99
2023-05-21T07:36:14.592Z,16.94
2023-05-21T07:37:17.060Z,16.95
2023-05-21T07:38:19.950Z,16.90
2023-05-21T07:39:22.605Z,16.86
2023-05-21T07:40:25.507Z,16.79
2023-05-21T07:41:27.984Z,16.77
2023-05-21T07:42:30.907Z,16.83
2023-05-21T07:43:33.599Z,16.86
2023-05-21T07:44:37.097Z,16.82
2023-05-21T07:45:39.833Z,16.80
2023-05-21T07:46:42.421Z,16.93
2023-05-21T07:47:46.272Z,16.93
2023-05-21T07:48:50.643Z,16.92
2023-05-21T07:49:53.015Z,17.02
2023-05-21T07:51:00.174Z,16.99
2023-05-21T07:52:03.773Z,17.00
2023-05-21T07:53:06.657Z,17.17
2023-05-21T07:54:10.896Z,17.24
2023-05-21T07:55:13.360Z,17.30
2023-05-21T07:56:17.395Z,17.35
2023-05-21T07:57:19.641Z,17.30
2023-05-21T07:58:34.557Z,17.33
2023-05-21T07:59:36.882Z,17.40
2023-05-21T08:00:46.899Z,17.45
2023-05-21T08:01:49.675Z,17.43
2023-05-21T08:02:52.845Z,17.39
2023-05-21T08:03:56.456Z,17.28
2023-05-21T08:05:00.910Z,17.24
2023-05-21T08:06:03.641Z,17.24
2023-05-21T08:07:06.286Z,17.16
2023-05-21T08:08:08.773Z,17.17
2023-05-21T08:09:11.812Z,17.12
2023-05-21T08:10:17.770Z,17.20
2023-05-21T08:11:21.564Z,17.11
2023-05-21T08:12:24.904Z,16.97
2023-05-21T08:13:27.210Z,16.94
2023-05-21T08:14:30.098Z,16.97
2023-05-21T08:15:32.663Z,17.03
2023-05-21T08:16:36.286Z,17.08
2023-05-21T08:17:38.584Z,17.11
2023-05-21T08:18:40.989Z,17.05
2023-05-21T08:19:43.241Z,17.03
2023-05-21T08:20:45.685Z,17.22
2023-05-21T08:21:49.300Z,17.22
2023-05-21T08:22:53.492Z,17.29
2023-05-21T08:23:57.642Z,17.33
2023-05-21T08:25:00.875Z,17.43
2023-05-21T08:26:03.608Z,17.53
2023-05-21T08:27:07.171Z,17.59
2023-05-21T08:28:09.922Z,17.63
2023-05-21T08:29:13.456Z,17.55
2023-05-21T08:30:16.604Z,17.53
2023-05-21T08:31:19.929Z,17.63
2023-05-21T08:32:22.448Z,17.53
2023-05-21T08:33:34.409Z,17.61
2023-05-21T08:34:40.397Z,17.57
2023-05-21T08:35:50.407Z,17.57
2023-05-21T08:36:54.988Z,17.62
2023-05-21T08:38:00.282Z,17.74
2023-05-21T08:40:25.169Z,17.88
2023-05-21T08:41:30.470Z,17.79
2023-05-21T08:42:45.680Z,17.81
2023-05-21T08:43:55.249Z,17.94
2023-05-21T08:45:00.655Z,18.01
2023-05-21T08:46:04.316Z,18.14
2023-05-21T08:48:55.836Z,18.43
2023-05-21T08:50:00.982Z,18.43
2023-05-21T08:51:04.365Z,18.56
2023-05-21T08:52:08.931Z,18.58
2023-05-21T08:53:54.991Z,18.62
2023-05-21T08:55:51.909Z,18.77
2023-05-21T08:56:12.560Z,18.87
2023-05-21T08:57:18.505Z,18.92
2023-05-21T08:58:21.345Z,18.86
2023-05-21T08:59:25.329Z,18.87
2023-05-21T09:00:28.047Z,18.88
2023-05-21T09:01:32.791Z,18.85
2023-05-21T09:02:46.811Z,18.97
2023-05-21T09:03:51.624Z,19.06
2023-05-21T09:04:58.435Z,19.11
2023-05-21T09:06:03.522Z,19.21
2023-05-21T09:07:09.501Z,19.26
2023-05-21T09:08:21.142Z,19.21
2023-05-21T09:09:35.347Z,19.01
2023-05-21T09:11:51.516Z,19.17
2023-05-21T09:12:54.959Z,18.95
2023-05-21T09:13:59.066Z,18.86
2023-05-21T09:15:12.784Z,18.94
2023-05-21T09:16:15.573Z,18.63
2023-05-21T09:17:20.716Z,18.77
2023-05-21T09:18:26.874Z,18.94
2023-05-21T09:19:31.603Z,18.94
2023-05-21T09:20:34.665Z,18.93
2023-05-21T09:21:39.192Z,18.96
2023-05-21T09:22:51.604Z,19.10
2023-05-21T09:23:56.667Z,19.05
2023-05-21T09:24:59.184Z,19.18
2023-05-21T09:26:06.440Z,19.15
2023-05-21T09:27:08.855Z,19.19
2023-05-21T09:28:12.611Z,18.84
2023-05-21T09:29:15.782Z,18.86
2023-05-21T09:30:22.593Z,18.99
2023-05-21T09:31:25.471Z,19.09
2023-05-21T09:32:28.310Z,19.14
2023-05-21T09:33:30.906Z,19.31
2023-05-21T09:34:36.990Z,19.45
2023-05-21T09:37:01.071Z,19.85
2023-05-21T09:38:07.265Z,19.90
2023-05-21T09:39:12.365Z,19.75
2023-05-21T09:40:21.060Z,19.58
2023-05-21T09:41:35.405Z,19.63
2023-05-21T09:42:39.775Z,19.69
2023-05-21T09:43:43.570Z,19.64
2023-05-21T09:44:48.444Z,19.63
2023-05-21T09:45:55.078Z,19.53
2023-05-21T09:46:59.589Z,19.53
2023-05-21T09:48:01.969Z,19.46
2023-05-21T09:49:06.762Z,19.43
2023-05-21T09:50:12.162Z,19.36
2023-05-21T09:51:16.860Z,19.29
2023-05-21T09:52:25.679Z,19.23
2023-05-21T09:53:29.287Z,19.31
2023-05-21T09:54:34.389Z,19.09
2023-05-21T09:55:37.663Z,19.20
2023-05-21T09:56:40.090Z,19.35
2023-05-21T09:57:49.800Z,19.31
2023-05-21T09:58:57.348Z,19.36
2023-05-21T10:00:00.249Z,19.45
2023-05-21T10:01:03.602Z,19.46
2023-05-21T10:02:20.684Z,19.46
2023-05-21T10:03:26.264Z,19.42
2023-05-21T10:04:30.436Z,19.19
2023-05-21T10:05:33.490Z,19.17
2023-05-21T10:06:39.452Z,19.15
2023-05-21T10:07:51.629Z,19.15
2023-05-21T10:08:57.933Z,19.21
2023-05-21T10:10:02.910Z,19.28
2023-05-21T10:11:05.966Z,19.39
2023-05-21T10:12:11.042Z,19.42
2023-05-21T10:13:17.175Z,19.47
2023-05-21T10:14:21.867Z,19.48
2023-05-21T10:15:27.079Z,19.59
2023-05-21T10:16:32.144Z,19.48
2023-05-21T10:17:35.917Z,19.66
2023-05-21T10:18:41.585Z,19.74
2023-05-21T10:19:45.974Z,19.76
2023-05-21T10:20:48.990Z,19.90
2023-05-21T10:21:52.924Z,20.01
2023-05-21T10:22:57.519Z,20.20
2023-05-21T10:24:02.209Z,20.37
2023-05-21T10:25:07.758Z,20.37
2023-05-21T10:26:12.663Z,20.59
2023-05-21T10:27:16.866Z,20.61
2023-05-21T10:28:20.379Z,20.76
2023-05-21T10:29:22.903Z,20.82
2023-05-21T10:30:25.513Z,20.69
2023-05-21T10:31:28.478Z,20.78
2023-05-21T10:32:32.357Z,20.78
2023-05-21T10:33:36.525Z,20.86
2023-05-21T10:34:38.932Z,21.01
2023-05-21T10:35:41.190Z,21.17
2023-05-21T10:36:44.491Z,21.12
2023-05-21T10:37:48.235Z,21.33
2023-05-21T10:38:51.992Z,21.50
2023-05-21T10:39:55.749Z,21.25
2023-05-21T10:40:59.873Z,21.39
2023-05-21T10:42:15.495Z,21.43
2023-05-21T10:43:55.858Z,21.43
2023-05-21T10:45:33.191Z,21.20
2023-05-21T10:46:57.315Z,21.27
2023-05-21T10:48:13.322Z,21.26
2023-05-21T10:49:39.183Z,21.33
2023-05-21T10:51:01.673Z,21.16
2023-05-21T10:53:59.289Z,20.98
2023-05-21T10:57:04.922Z,21.25
2023-05-21T10:59:45.559Z,21.73
2023-05-21T11:00:50.285Z,21.80
2023-05-21T11:01:53.942Z,21.98
2023-05-21T11:02:58.195Z,22.15
2023-05-21T11:04:01.363Z,22.25
2023-05-21T11:05:05.008Z,22.31
2023-05-21T11:06:07.919Z,22.38
2023-05-21T11:07:12.584Z,22.20
2023-05-21T11:08:23.751Z,22.34
2023-05-21T11:09:26.628Z,22.52
2023-05-21T11:10:39.336Z,22.34
2023-05-21T11:11:45.540Z,22.34
2023-05-21T11:14:35.990Z,22.41
2023-05-21T11:16:00.276Z,22.25
2023-05-21T11:17:06.212Z,22.33
2023-05-21T11:18:08.906Z,22.49
2023-05-21T11:19:18.912Z,22.66
2023-05-21T11:20:22.528Z,22.66
2023-05-21T11:21:30.878Z,22.79
2023-05-21T11:22:35.664Z,23.06
2023-05-21T11:23:57.985Z,22.98
2023-05-21T11:25:02.832Z,22.77
2023-05-21T11:26:06.734Z,22.62
2023-05-21T11:27:09.406Z,22.67
2023-05-21T11:28:12.709Z,22.64
2023-05-21T11:29:15.919Z,22.61
2023-05-21T11:30:19.490Z,22.86
2023-05-21T11:31:26.315Z,22.94
2023-05-21T11:32:29.160Z,22.94
2023-05-21T11:33:33.918Z,23.06
2023-05-21T11:34:39.013Z,23.31
2023-05-21T11:35:57.596Z,23.48
2023-05-21T11:37:28.711Z,23.49
2023-05-21T11:38:32.222Z,23.58
2023-05-21T11:39:39.504Z,23.57
2023-05-21T11:40:56.100Z,23.29
2023-05-21T11:42:03.802Z,23.18
2023-05-21T11:43:05.424Z,23.03
2023-05-21T11:44:08.554Z,23.08
2023-05-21T11:45:11.382Z,22.79
2023-05-21T11:46:14.184Z,22.67
2023-05-21T11:47:19.728Z,22.80
2023-05-21T11:48:27.382Z,22.84
2023-05-21T11:49:31.167Z,22.94
2023-05-21T11:50:35.367Z,23.23
2023-05-21T11:51:40.296Z,23.13
2023-05-21T11:52:43.710Z,23.22
2023-05-21T11:53:47.894Z,23.36
2023-05-21T11:54:57.271Z,23.56
2023-05-21T11:56:02.184Z,23.73
2023-05-21T11:57:08.261Z,23.81
2023-05-21T11:58:14.091Z,23.88
2023-05-21T11:59:18.710Z,23.89
2023-05-21T12:00:24.803Z,24.07
2023-05-21T12:01:27.310Z,24.14
2023-05-21T12:02:33.994Z,24.19
2023-05-21T12:03:37.420Z,24.04
2023-05-21T12:04:41.433Z,24.15
2023-05-21T12:05:48.177Z,24.31
2023-05-21T12:06:58.208Z,24.20
2023-05-21T12:08:01.311Z,24.30
2023-05-21T12:09:04.319Z,24.26
2023-05-21T12:10:08.247Z,24.21
2023-05-21T12:11:10.927Z,24.33
2023-05-21T12:12:16.110Z,24.29
2023-05-21T12:13:18.403Z,24.06
2023-05-21T12:14:23.817Z,24.21
2023-05-21T12:15:27.243Z,24.32
2023-05-21T12:16:32.092Z,24.48
2023-05-21T12:17:34.868Z,24.46
2023-05-21T12:18:38.447Z,24.30
2023-05-21T12:19:41.071Z,24.01
2023-05-21T12:20:44.301Z,23.99
2023-05-21T12:21:46.849Z,23.94
2023-05-21T12:22:50.530Z,23.83
2023-05-21T12:23:53.499Z,23.36
2023-05-21T12:24:57.912Z,23.13
2023-05-21T12:26:00.746Z,23.22
2023-05-21T12:27:07.025Z,23.33
2023-05-21T12:28:09.630Z,23.38
2023-05-21T12:29:11.995Z,23.44
2023-05-21T12:30:15.251Z,22.90
2023-05-21T12:31:17.887Z,23.10
2023-05-21T12:32:22.927Z,23.35
2023-05-21T12:33:27.630Z,23.29
2023-05-21T12:34:45.014Z,23.24
2023-05-21T12:35:49.325Z,23.28
2023-05-21T12:36:52.513Z,23.36
2023-05-21T12:37:55.357Z,23.51
2023-05-21T12:38:58.454Z,23.66
2023-05-21T12:40:05.222Z,23.78
2023-05-21T12:41:07.909Z,23.89
2023-05-21T12:42:11.333Z,23.87
2023-05-21T12:43:13.776Z,23.61
2023-05-21T12:44:16.245Z,23.61
2023-05-21T12:45:20.556Z,23.71
2023-05-21T12:46:23.618Z,23.88
2023-05-21T12:47:28.169Z,24.00
2023-05-21T12:48:31.038Z,24.05
2023-05-21T12:49:36.266Z,23.92
2023-05-21T12:50:40.923Z,23.79
2023-05-21T12:51:45.157Z,23.39
2023-05-21T12:52:47.978Z,23.61
2023-05-21T12:53:50.982Z,23.93
2023-05-21T12:54:57.323Z,24.15
2023-05-21T12:56:11.075Z,24.38
2023-05-21T12:57:16.382Z,24.47
2023-05-21T12:58:22.103Z,24.64
2023-05-21T12:59:25.506Z,24.84
2023-05-21T13:00:28.654Z,24.86
2023-05-21T13:01:31.107Z,24.88
2023-05-21T13:02:41.744Z,24.94
2023-05-21T13:03:45.322Z,25.01
2023-05-21T13:04:48.937Z,24.70
2023-05-21T13:06:00.503Z,24.24
2023-05-21T13:07:04.925Z,24.11
2023-05-21T13:08:09.230Z,23.52
2023-05-21T13:09:12.763Z,23.28
2023-05-21T13:10:18.046Z,23.19
2023-05-21T13:11:21.997Z,22.77
2023-05-21T13:12:26.688Z,22.74
2023-05-21T13:13:29.331Z,22.72
2023-05-21T13:14:31.955Z,22.74
2023-05-21T13:15:34.607Z,22.79
2023-05-21T13:16:37.733Z,22.91
2023-05-21T13:17:39.876Z,23.19
2023-05-21T13:18:42.172Z,23.18
2023-05-21T13:20:59.017Z,23.30
2023-05-21T13:22:01.228Z,22.91
2023-05-21T13:23:06.779Z,22.60
2023-05-21T13:24:10.682Z,22.66
2023-05-21T13:25:16.329Z,22.60
2023-05-21T13:26:19.066Z,22.59
2023-05-21T13:27:21.725Z,22.84
2023-05-21T13:28:24.264Z,22.88
2023-05-21T13:29:27.339Z,22.78
2023-05-21T13:30:30.115Z,22.84
2023-05-21T13:31:32.353Z,22.83
2023-05-21T13:32:35.383Z,22.66
2023-05-21T13:33:37.773Z,22.53
2023-05-21T13:34:41.238Z,22.35
2023-05-21T13:35:45.584Z,22.23
2023-05-21T13:36:48.444Z,22.23
2023-05-21T13:37:51.016Z,22.25
2023-05-21T13:38:55.526Z,21.81
2023-05-21T13:39:58.139Z,21.68
2023-05-21T13:41:00.646Z,21.34
2023-05-21T13:42:05.382Z,21.40
2023-05-21T13:43:08.436Z,21.22
2023-05-21T13:44:13.015Z,21.14
2023-05-21T13:45:18.417Z,21.19
2023-05-21T13:46:21.404Z,21.21
2023-05-21T13:47:24.597Z,20.96
2023-05-21T13:48:26.962Z,21.15
2023-05-21T13:49:29.221Z,21.39
2023-05-21T13:50:31.694Z,21.73
2023-05-21T13:51:39.049Z,22.21
2023-05-21T13:52:39.062Z,22.71
2023-05-21T13:53:41.921Z,23.15
2023-05-21T13:54:44.593Z,23.49
2023-05-21T13:55:46.834Z,23.95
2023-05-21T13:56:49.892Z,24.35
2023-05-21T13:57:52.141Z,24.39
2023-05-21T13:58:55.393Z,23.97
2023-05-21T14:00:00.717Z,23.90
2023-05-21T14:01:03.712Z,23.36
2023-05-21T14:02:08.349Z,23.28
2023-05-21T14:03:10.805Z,23.18